Time;durP1;ratioP1;P1;durP2;ratioP2;P2;SDS_P1;SDS_P2;PMS_P1;PMS_P2;Temp;Humidity;BMP_temperature;BMP_pressure;BME280_temperature;BME280_humidity;BME280_pressure;Samples;Min_cycle;Max_cycle;Signal;HPM_P1;HPM_P2
2021/11/25 00:03:16;;;;;;;17.65;8.70;;;;;;;6.45;97.09;101348.09;10154903;28;20508;-67
2021/11/25 00:08:13;;;;;;;13.25;8.52;;;;;;;6.46;96.94;101343.47;10151198;28;20092;-71
2021/11/25 00:13:11;;;;;;;13.77;9.38;;;;;;;6.50;97.75;101329.06;10149913;28;20070;-69
2021/11/25 00:18:08;;;;;;;13.38;8.73;;;;;;;6.45;96.47;101326.38;10155265;28;20073;-71
2021/11/25 00:23:04;;;;;;;13.23;8.75;;;;;;;6.56;97.46;101315.47;10154650;28;20077;-68
2021/11/25 00:28:01;;;;;;;13.57;9.02;;;;;;;6.53;95.31;101312.19;10162291;28;20045;-72
2021/11/25 00:32:57;;;;;;;13.57;8.88;;;;;;;6.49;94.54;101316.53;10155248;28;20518;-69
2021/11/25 00:37:54;;;;;;;12.70;7.53;;;;;;;6.51;94.54;101308.13;10158049;28;20420;-67
2021/11/25 00:42:51;;;;;;;12.65;7.65;;;;;;;6.36;93.42;101300.84;10163305;28;20046;-68
2021/11/25 00:47:47;;;;;;;12.63;8.00;;;;;;;6.34;93.42;101286.72;10157743;28;20046;-70
2021/11/25 00:52:44;;;;;;;16.40;9.48;;;;;;;6.36;95.03;101279.13;10160157;28;20489;-70
2021/11/25 00:57:41;;;;;;;13.05;8.52;;;;;;;6.41;95.24;101276.38;10161394;28;20467;-68
2021/11/25 01:02:38;;;;;;;12.82;8.52;;;;;;;6.43;94.35;101273.38;10172184;28;20553;-71
2021/11/25 01:07:34;;;;;;;15.00;8.80;;;;;;;6.41;93.18;101268.22;10164643;28;20046;-71
2021/11/25 01:12:31;;;;;;;13.80;9.63;;;;;;;6.40;93.53;101261.16;10171547;28;20050;-69
2021/11/25 01:17:28;;;;;;;12.65;7.97;;;;;;;6.48;95.25;101266.03;10147730;28;20487;-70
2021/11/25 01:22:24;;;;;;;17.13;9.93;;;;;;;6.49;95.43;101278.50;10168193;28;20065;-70
2021/11/25 01:27:21;;;;;;;14.23;8.45;;;;;;;6.54;94.62;101269.53;10156111;28;20081;-69
2021/11/25 01:32:17;;;;;;;15.85;8.50;;;;;;;6.53;94.55;101262.50;10163587;28;20074;-70
2021/11/25 01:37:13;;;;;;;11.57;7.88;;;;;;;6.51;95.62;101248.38;10156795;28;20057;-69
2021/11/25 01:42:10;;;;;;;13.27;8.70;;;;;;;6.52;97.08;101229.09;10166768;28;20076;-70
2021/11/25 01:47:07;;;;;;;16.08;9.30;;;;;;;6.57;98.04;101219.25;10153142;28;20041;-69
2021/11/25 01:52:04;;;;;;;15.02;8.88;;;;;;;6.56;98.93;101206.78;10166342;28;20046;-71
2021/11/25 01:57:07;;;;;;;11.27;7.43;;;;;;;6.58;98.26;101205.41;10152772;28;20108;-70
2021/11/25 02:02:04;;;;;;;15.00;9.85;;;;;;;6.59;100.00;101200.78;10165070;28;20534;-70
2021/11/25 02:07:01;;;;;;;15.52;9.60;;;;;;;6.58;97.67;101196.44;10161289;28;20451;-70
2021/11/25 02:11:58;;;;;;;12.77;8.57;;;;;;;6.53;95.66;101192.66;10158962;28;20085;-70
2021/11/25 02:16:55;;;;;;;12.00;8.75;;;;;;;6.32;95.90;101183.78;10139273;28;20078;-70
2021/11/25 02:21:52;;;;;;;13.48;8.57;;;;;;;6.45;96.00;101163.38;10164549;28;20070;-69
2021/11/25 02:26:48;;;;;;;12.82;8.55;;;;;;;6.47;96.63;101157.63;10155808;28;20042;-71
2021/11/25 02:31:45;;;;;;;13.80;8.35;;;;;;;6.51;97.06;101162.25;10169717;28;20054;-71
2021/11/25 02:36:41;;;;;;;15.40;9.18;;;;;;;6.49;99.99;101148.13;10168243;28;20074;-71
2021/11/25 02:41:38;;;;;;;11.73;7.63;;;;;;;6.40;98.08;101138.94;10168668;28;20042;-68
2021/11/25 02:46:34;;;;;;;14.07;8.75;;;;;;;6.43;96.86;101130.25;10149831;28;20076;-71
2021/11/25 02:51:31;;;;;;;12.80;8.02;;;;;;;6.35;96.00;101124.56;10155355;28;20129;-70
2021/11/25 02:56:30;;;;;;;12.77;7.25;;;;;;;6.39;95.43;101110.16;10160494;28;20504;-72
2021/11/25 03:01:26;;;;;;;11.95;7.82;;;;;;;6.38;96.57;101108.50;10156977;28;20050;-72
2021/11/25 03:06:24;;;;;;;13.25;8.32;;;;;;;6.37;98.84;101101.47;10154640;28;20092;-72
2021/11/25 03:11:22;;;;;;;12.50;7.78;;;;;;;6.31;95.63;101086.28;10157603;28;20043;-72
2021/11/25 03:16:22;;;;;;;13.65;7.95;;;;;;;6.22;96.92;101090.69;10158887;28;20034;-71
2021/11/25 03:21:20;;;;;;;13.48;8.85;;;;;;;6.18;98.73;101089.63;10152170;28;20050;-72
2021/11/25 03:26:19;;;;;;;12.60;7.60;;;;;;;6.06;99.42;101071.75;10166090;28;20042;-71
2021/11/25 03:31:24;;;;;;;13.27;7.32;;;;;;;5.98;99.07;101075.03;10152218;28;20488;-70
2021/11/25 03:36:21;;;;;;;11.00;7.05;;;;;;;5.91;100.00;101066.34;10163293;28;20038;-69
2021/11/25 03:41:19;;;;;;;12.55;7.93;;;;;;;5.87;100.00;101054.44;10153773;28;20050;-69
2021/11/25 03:46:16;;;;;;;12.68;8.00;;;;;;;5.88;100.00;101056.06;10147146;28;20093;-69
2021/11/25 03:51:13;;;;;;;15.05;7.80;;;;;;;5.89;100.00;101057.69;10143937;28;20058;-69
2021/11/25 03:56:10;;;;;;;12.63;8.98;;;;;;;5.96;100.00;101052.78;10148754;28;20455;-69
2021/11/25 04:01:06;;;;;;;13.32;7.75;;;;;;;5.96;100.00;101041.94;10161619;28;20096;-73
2021/11/25 04:06:03;;;;;;;13.20;8.65;;;;;;;5.96;100.00;101041.94;10157456;28;20045;-71
2021/11/25 04:11:01;;;;;;;14.18;8.65;;;;;;;5.98;100.00;101039.75;10157052;28;20049;-70
2021/11/25 04:15:58;;;;;;;13.80;8.48;;;;;;;5.96;100.00;101041.13;10142743;28;20093;-72
2021/11/25 04:20:54;;;;;;;15.43;9.52;;;;;;;6.00;100.00;101036.78;10160939;28;20109;-69
2021/11/25 04:25:51;;;;;;;15.15;9.52;;;;;;;6.02;100.00;101029.16;10142324;28;20158;-69
2021/11/25 04:30:53;;;;;;;14.30;9.57;;;;;;;5.99;100.00;101016.16;10149764;28;20071;-70
2021/11/25 04:35:50;;;;;;;12.32;8.50;;;;;;;5.96;100.00;101009.38;10155842;28;20046;-70
2021/11/25 04:40:50;;;;;;;14.88;8.98;;;;;;;5.95;100.00;101007.75;10148664;28;20456;-72
2021/11/25 04:45:49;;;;;;;15.98;8.73;;;;;;;5.96;100.00;101003.94;10153020;28;20100;-71
2021/11/25 04:50:46;;;;;;;12.85;8.70;;;;;;;5.98;100.00;100996.34;10140626;28;20043;-73
2021/11/25 04:55:43;;;;;;;12.07;7.82;;;;;;;5.95;100.00;100994.19;10166119;28;20567;-72
2021/11/25 05:00:40;;;;;;;13.82;8.18;;;;;;;5.95;99.63;100980.63;10153683;28;20065;-71
2021/11/25 05:05:40;;;;;;;12.85;8.35;;;;;;;5.88;98.78;100967.31;10147035;28;20042;-70
2021/11/25 05:10:38;;;;;;;13.93;8.90;;;;;;;5.96;98.81;100965.94;10154386;28;20134;-71
2021/11/25 05:15:34;;;;;;;13.70;8.93;;;;;;;5.98;98.78;100960.25;10154082;28;20072;-73
2021/11/25 05:20:31;;;;;;;14.80;8.98;;;;;;;5.95;97.57;100958.91;10137501;28;20523;-71
2021/11/25 05:25:28;;;;;;;13.88;9.73;;;;;;;5.93;96.46;100961.06;10137586;28;20086;-71
2021/11/25 05:30:30;;;;;;;13.38;8.88;;;;;;;5.94;96.42;100951.88;10144891;28;20058;-72
2021/11/25 05:35:28;;;;;;;15.57;9.25;;;;;;;5.92;96.99;100940.44;10150774;28;20050;-70
2021/11/25 05:40:25;;;;;;;16.67;10.90;;;;;;;5.81;96.88;100928.03;10162335;28;20046;-72
2021/11/25 05:45:22;;;;;;;16.98;10.50;;;;;;;5.82;96.38;100943.19;10164845;28;20062;-72
2021/11/25 05:50:22;;;;;;;16.35;10.95;;;;;;;5.87;97.12;100937.75;10167984;28;20104;-71
2021/11/25 05:55:19;;;;;;;16.92;11.10;;;;;;;5.89;96.46;100922.00;10148986;28;20090;-68
2021/11/25 06:00:16;;;;;;;16.42;10.65;;;;;;;5.91;94.71;100914.38;10143714;28;20049;-67
2021/11/25 06:05:15;;;;;;;18.45;11.38;;;;;;;5.83;93.80;100913.09;10138740;28;20050;-68
2021/11/25 06:10:15;;;;;;;17.83;11.80;;;;;;;5.93;93.84;100901.34;10138863;28;20042;-68
2021/11/25 06:15:11;;;;;;;15.07;9.75;;;;;;;5.99;94.46;100902.97;10125317;28;20580;-69
2021/11/25 06:20:12;;;;;;;16.42;11.23;;;;;;;6.04;93.22;100893.97;10120067;28;20082;-68
2021/11/25 06:25:11;;;;;;;18.42;11.18;;;;;;;6.02;92.71;100888.81;10136037;28;20046;-69
2021/11/25 06:30:10;;;;;;;17.50;11.02;;;;;;;6.01;90.29;100892.66;10158895;28;20046;-67
2021/11/25 06:35:11;;;;;;;21.00;11.25;;;;;;;5.96;92.05;100889.94;10149244;28;20112;-67
2021/11/25 06:40:09;;;;;;;17.23;10.88;;;;;;;5.99;90.04;100892.13;10161308;28;20104;-69
2021/11/25 06:45:06;;;;;;;19.40;12.27;;;;;;;6.02;88.71;100877.16;10158460;28;20038;-68
2021/11/25 06:50:09;;;;;;;18.23;11.70;;;;;;;6.03;88.73;100868.72;10129500;28;20082;-67
2021/11/25 06:55:08;;;;;;;20.63;11.93;;;;;;;5.95;87.28;100866.63;10146622;28;20501;-67
2021/11/25 07:00:08;;;;;;;18.90;12.20;;;;;;;5.87;86.84;100859.88;10164795;28;20556;-68
2021/11/25 07:05:06;;;;;;;18.45;12.02;;;;;;;5.86;86.37;100860.16;10149558;28;20117;-68
2021/11/25 07:10:05;;;;;;;21.58;13.05;;;;;;;5.90;87.50;100847.66;10137956;28;20488;-68
2021/11/25 07:15:04;;;;;;;22.98;14.32;;;;;;;5.86;86.36;100846.56;10133555;28;20555;-69
2021/11/25 07:20:02;;;;;;;21.85;13.50;;;;;;;5.82;86.81;100846.31;10142223;28;20140;-67
2021/11/25 07:24:59;;;;;;;21.48;13.38;;;;;;;5.86;87.04;100847.38;10139337;28;20142;-67
2021/11/25 07:29:56;;;;;;;24.42;15.27;;;;;;;5.81;87.08;100827.63;10142078;28;20092;-68
2021/11/25 07:34:53;;;;;;;22.30;15.23;;;;;;;5.82;87.60;100835.47;10127156;28;20681;-66
2021/11/25 07:39:49;;;;;;;22.80;15.05;;;;;;;5.87;87.81;100827.31;10109746;28;20523;-66
2021/11/25 07:44:46;;;;;;;26.58;15.70;;;;;;;5.96;87.48;100813.94;10115991;28;20539;-67
2021/11/25 07:49:43;;;;;;;26.05;16.40;;;;;;;5.93;86.54;100809.06;10120726;28;20147;-67
2021/11/25 07:54:42;;;;;;;26.35;16.88;;;;;;;5.97;87.75;100799.31;10125053;28;20060;-68
2021/11/25 07:59:39;;;;;;;25.20;17.00;;;;;;;5.88;87.63;100801.78;10127133;28;20069;-65
2021/11/25 08:04:35;;;;;;;29.85;18.33;;;;;;;5.96;88.41;100792.25;10120746;28;20073;-67
2021/11/25 08:09:32;;;;;;;33.45;19.88;;;;;;;5.86;88.53;100770.59;10139708;28;20034;-65
2021/11/25 08:14:28;;;;;;;30.25;19.33;;;;;;;5.91;89.00;100784.13;10134165;28;20047;-69
2021/11/25 08:19:26;;;;;;;31.70;21.40;;;;;;;5.95;89.81;100779.78;10132146;28;20477;-69
2021/11/25 08:24:22;;;;;;;35.78;21.73;;;;;;;5.97;90.68;100766.72;10140129;28;20092;-68
2021/11/25 08:29:19;;;;;;;35.45;21.42;;;;;;;5.96;91.21;100765.09;10137227;28;20062;-69
2021/11/25 08:34:16;;;;;;;34.42;21.45;;;;;;;5.98;91.77;100760.19;10139959;28;20713;-69
2021/11/25 08:39:13;;;;;;;33.22;20.98;;;;;;;6.04;91.99;100750.13;10133953;28;20571;-67
2021/11/25 08:44:09;;;;;;;34.78;21.83;;;;;;;6.09;92.54;100759.00;10139615;28;20104;-69
2021/11/25 08:49:06;;;;;;;33.92;21.80;;;;;;;6.11;92.93;100759.53;10145297;28;20038;-68
2021/11/25 08:54:03;;;;;;;35.45;22.63;;;;;;;6.23;93.95;100742.06;10154186;28;20049;-69
2021/11/25 08:58:59;;;;;;;30.88;19.73;;;;;;;6.23;93.32;100736.63;10127611;28;20153;-70
2021/11/25 09:03:55;;;;;;;32.70;21.25;;;;;;;6.22;92.92;100730.38;10134271;28;20047;-68
2021/11/25 09:08:53;;;;;;;35.80;20.70;;;;;;;6.14;94.42;100731.00;10139353;28;20085;-69
2021/11/25 09:13:50;;;;;;;35.67;20.40;;;;;;;6.18;97.53;100742.09;10146899;28;20085;-67
2021/11/25 09:18:46;;;;;;;33.58;21.02;;;;;;;6.22;97.55;100751.28;10158883;28;20042;-67
2021/11/25 09:23:43;;;;;;;38.15;21.48;;;;;;;6.05;97.14;100752.53;10143740;28;20054;-69
2021/11/25 09:28:40;;;;;;;34.30;21.45;;;;;;;6.01;97.09;100740.66;10149449;28;20101;-69
2021/11/25 09:33:36;;;;;;;36.95;21.83;;;;;;;5.93;98.04;100746.66;10146955;28;20398;-69
2021/11/25 09:38:34;;;;;;;39.97;23.58;;;;;;;5.96;98.77;100735.25;10149447;28;20100;-72
2021/11/25 09:43:30;;;;;;;40.40;23.30;;;;;;;5.82;100.00;100731.56;10145793;28;20042;-68
2021/11/25 09:48:28;;;;;;;36.95;22.35;;;;;;;5.94;100.00;100721.19;10152173;28;20402;-69
2021/11/25 09:53:26;;;;;;;36.97;23.20;;;;;;;6.07;100.00;100706.91;10151158;28;20046;-69
2021/11/25 09:58:25;;;;;;;39.67;23.92;;;;;;;6.07;100.00;100712.34;10152061;28;20500;-69
2021/11/25 10:03:21;;;;;;;38.92;23.10;;;;;;;6.22;100.00;100707.84;10146820;28;20045;-70
2021/11/25 10:08:31;;;;;;;41.60;24.13;;;;;;;6.14;100.00;100713.91;10146572;28;20523;-67
2021/11/25 10:13:56;;;;;;;37.30;22.90;;;;;;;6.19;100.00;100694.84;10166727;28;20074;-70
2021/11/25 10:18:52;;;;;;;42.08;23.08;;;;;;;6.28;100.00;100695.81;10139259;28;20489;-69
2021/11/25 10:23:52;;;;;;;40.58;24.55;;;;;;;6.19;100.00;100684.00;10152928;28;20066;-69
2021/11/25 10:29:00;;;;;;;45.35;26.45;;;;;;;6.21;100.00;100679.06;10163076;28;20157;-68
2021/11/25 10:34:11;;;;;;;40.70;25.17;;;;;;;6.23;100.00;100672.25;10154833;28;20054;-69
2021/11/25 10:44:24;;;;;;;45.67;27.60;;;;;;;6.31;100.00;100641.75;10158368;28;20092;-69
2021/11/25 10:49:34;;;;;;;45.88;27.27;;;;;;;6.03;100.00;100638.00;10158421;28;20072;-69
2021/11/25 10:54:30;;;;;;;46.33;25.98;;;;;;;6.18;100.00;100634.31;10159386;28;20105;-68
2021/11/25 10:59:53;;;;;;;48.42;26.10;;;;;;;6.19;100.00;100633.19;10150273;28;20077;-68
2021/11/25 11:04:51;;;;;;;48.63;29.00;;;;;;;6.18;100.00;100630.81;10146265;28;20042;-66
2021/11/25 11:09:47;;;;;;;49.97;27.58;;;;;;;6.03;100.00;100620.91;10151449;28;20129;-68
2021/11/25 11:15:33;;;;;;;50.25;28.00;;;;;;;5.96;100.00;100629.41;10132833;28;20662;-68
2021/11/25 11:20:10;;;;;;;;;;;;;;;5.86;100.00;100629.50;10122280;28;20046;-68
2021/11/25 11:25:08;;;;;;;56.95;31.80;;;;;;;5.68;100.00;100634.53;10124983;28;19933;-69
2021/11/25 11:30:08;;;;;;;59.42;32.55;;;;;;;5.78;100.00;100632.81;10122014;28;20038;-69
2021/11/25 11:35:05;;;;;;;58.90;32.90;;;;;;;5.79;100.00;100634.47;10127700;28;20149;-69
2021/11/25 11:40:04;;;;;;;59.97;34.30;;;;;;;5.81;100.00;100626.84;10120194;28;20766;-68
2021/11/25 11:45:21;;;;;;;64.15;36.63;;;;;;;5.81;100.00;100618.69;10126839;28;20161;-66
2021/11/25 11:50:26;;;;;;;60.50;34.45;;;;;;;5.62;100.00;100611.31;10123069;28;20089;-68
2021/11/25 11:55:36;;;;;;;66.72;35.60;;;;;;;5.69;100.00;100606.34;10136113;28;20054;-65
2021/11/25 12:00:34;;;;;;;57.03;32.03;;;;;;;5.84;100.00;100604.56;10131000;28;20085;-67
2021/11/25 12:05:46;;;;;;;63.20;33.40;;;;;;;5.81;100.00;100599.72;10114566;28;20046;-67
2021/11/25 12:10:55;;;;;;;59.25;34.30;;;;;;;5.67;100.00;100605.81;10117280;28;20137;-67
2021/11/25 12:16:20;;;;;;;60.13;33.58;;;;;;;5.68;100.00;100595.78;10116171;28;20051;-67
2021/11/25 12:21:32;;;;;;;55.20;29.77;;;;;;;5.77;100.00;100588.63;10125967;28;20427;-68
2021/11/25 12:27:07;;;;;;;54.45;30.05;;;;;;;5.70;100.00;100583.53;10146703;28;20074;-68
2021/11/25 12:32:41;;;;;;;57.38;32.28;;;;;;;5.66;100.00;100571.66;10123367;28;20061;-68
2021/11/25 12:37:44;;;;;;;51.97;29.90;;;;;;;5.68;100.00;100558.59;10125751;28;20035;-68
2021/11/25 12:42:49;;;;;;;48.08;29.25;;;;;;;5.75;100.00;100557.44;10124219;28;20043;-68
2021/11/25 12:47:46;;;;;;;48.38;28.05;;;;;;;5.84;100.00;100553.00;10124732;28;20039;-68
2021/11/25 12:52:43;;;;;;;49.42;27.92;;;;;;;5.88;100.00;100540.47;10137557;28;20501;-68
2021/11/25 12:57:54;;;;;;;48.22;26.25;;;;;;;5.88;100.00;100540.47;10138977;28;20742;-69
2021/11/25 13:03:18;;;;;;;43.03;24.73;;;;;;;5.79;100.00;100536.78;10131966;28;20047;-69
2021/11/25 13:08:25;;;;;;;51.70;28.70;;;;;;;5.79;100.00;100525.94;10135247;28;20078;-69
2021/11/25 13:13:24;;;;;;;49.83;27.58;;;;;;;5.89;100.00;100526.63;10136421;28;20042;-69
2021/11/25 13:18:21;;;;;;;48.78;27.75;;;;;;;5.89;100.00;100510.34;10144755;28;20108;-70
2021/11/25 13:23:22;;;;;;;53.47;28.70;;;;;;;5.94;100.00;100506.78;10146703;28;20069;-70
2021/11/25 13:28:27;;;;;;;45.88;24.80;;;;;;;5.98;100.00;100507.78;10154081;28;20101;-70
2021/11/25 13:33:26;;;;;;;45.22;26.00;;;;;;;5.94;100.00;100511.34;10141320;28;20472;-70
2021/11/25 13:38:23;;;;;;;49.72;29.10;;;;;;;6.00;100.00;100500.16;10158701;28;20042;-68
2021/11/25 13:43:20;;;;;;;41.13;23.38;;;;;;;6.03;100.00;100515.06;10146766;28;20133;-69
2021/11/25 13:48:21;;;;;;;42.55;24.40;;;;;;;6.04;100.00;100503.91;10143994;28;20043;-70
2021/11/25 13:53:17;;;;;;;46.42;24.88;;;;;;;6.06;100.00;100496.28;10166456;28;20126;-68
2021/11/25 13:58:15;;;;;;;42.97;24.40;;;;;;;6.01;100.00;100485.53;10154048;28;20728;-68
2021/11/25 14:03:15;;;;;;;42.58;22.75;;;;;;;6.07;100.00;100484.31;10143308;28;20412;-67
2021/11/25 14:08:11;;;;;;;45.00;24.70;;;;;;;6.08;100.00;100482.41;10167646;28;20077;-68
2021/11/25 14:13:08;;;;;;;43.85;23.63;;;;;;;6.09;100.00;100484.03;10161048;28;20081;-67
2021/11/25 14:18:07;;;;;;;40.72;21.55;;;;;;;6.05;100.00;100488.44;10165802;28;20049;-68
2021/11/25 14:23:21;;;;;;;48.90;24.67;;;;;;;6.06;100.00;100493.59;10169268;28;20065;-70
2021/11/25 14:33:45;;;;;;;36.97;21.65;;;;;;;5.95;100.00;100480.44;10145284;28;20585;-70
2021/11/25 14:38:42;;;;;;;44.25;22.35;;;;;;;5.99;100.00;100476.84;10150060;28;20070;-70
2021/11/25 14:43:38;;;;;;;47.28;22.88;;;;;;;5.93;100.00;100480.69;10160881;28;20074;-70
2021/11/25 14:48:38;;;;;;;40.17;22.40;;;;;;;6.01;100.00;100471.94;10120764;28;20054;-70
2021/11/25 14:53:42;;;;;;;44.38;22.20;;;;;;;5.96;100.00;100472.00;10127959;28;20066;-70
2021/11/25 14:58:53;;;;;;;40.38;21.75;;;;;;;6.03;100.00;100467.00;10120135;28;20082;-70
2021/11/25 15:03:53;;;;;;;53.30;26.48;;;;;;;5.93;100.00;100478.00;10132028;28;20160;-70
2021/11/25 15:08:49;;;;;;;44.17;22.60;;;;;;;5.93;100.00;100472.56;10136554;28;20046;-69
2021/11/25 15:13:46;;;;;;;54.70;25.90;;;;;;;5.97;100.00;100484.47;10129391;28;20134;-69
2021/11/25 15:18:42;;;;;;;50.30;26.25;;;;;;;5.92;100.00;100468.25;10128004;28;20050;-68
2021/11/25 15:23:39;;;;;;;49.65;24.88;;;;;;;5.79;100.00;100463.53;10126377;28;20157;-70
2021/11/25 15:28:35;;;;;;;48.08;24.17;;;;;;;5.76;100.00;100462.22;10124177;28;20386;-69
2021/11/25 15:33:32;;;;;;;46.17;22.60;;;;;;;5.64;100.00;100459.94;10117838;28;20039;-69
2021/11/25 15:38:29;;;;;;;47.05;23.10;;;;;;;5.65;100.00;100461.53;10123629;28;20050;-69
2021/11/25 15:43:26;;;;;;;45.65;20.05;;;;;;;5.61;100.00;100468.63;10121645;28;20050;-69
2021/11/25 15:48:23;;;;;;;43.42;21.08;;;;;;;5.56;100.00;100465.97;10144264;28;20095;-68
2021/11/25 15:53:23;;;;;;;47.00;21.10;;;;;;;5.56;100.00;100467.91;10132413;28;20050;-68
2021/11/25 15:58:21;;;;;;;51.13;24.17;;;;;;;5.61;100.00;100465.91;10135738;28;20648;-69
2021/11/25 16:03:19;;;;;;;48.08;22.25;;;;;;;5.67;100.00;100459.34;10129806;28;20078;-68
2021/11/25 16:08:17;;;;;;;48.13;22.42;;;;;;;5.63;100.00;100452.88;10127782;28;20039;-73
2021/11/25 16:13:13;;;;;;;53.72;22.75;;;;;;;5.61;100.00;100455.06;10113019;28;20073;-68
2021/11/25 16:18:11;;;;;;;43.58;23.50;;;;;;;5.52;100.00;100448.66;10103461;28;20105;-68
2021/11/25 16:23:08;;;;;;;49.88;23.67;;;;;;;5.46;100.00;100453.38;10118849;28;20584;-68
2021/11/25 16:28:04;;;;;;;46.83;22.80;;;;;;;5.44;100.00;100443.91;10109447;28;20074;-69
2021/11/25 16:33:01;;;;;;;44.97;22.23;;;;;;;5.40;100.00;100437.44;10120938;28;20077;-69
2021/11/25 16:37:58;;;;;;;46.63;21.33;;;;;;;5.36;100.00;100434.53;10130827;28;20038;-69
2021/11/25 16:42:55;;;;;;;44.17;21.20;;;;;;;5.47;100.00;100440.59;10127336;28;20068;-69
2021/11/25 16:53:07;;;;;;;35.63;16.45;;;;;;;5.51;100.00;100438.13;10148760;28;20050;-68
2021/11/25 16:58:03;;;;;;;33.35;16.42;;;;;;;5.40;100.00;100437.44;10145895;28;20105;-68
2021/11/25 17:03:01;;;;;;;31.35;13.75;;;;;;;5.34;100.00;100433.16;10129012;28;20479;-69
2021/11/25 17:07:58;;;;;;;27.98;10.52;;;;;;;5.30;100.00;100437.56;10139845;28;20421;-70
2021/11/25 17:12:55;;;;;;;23.67;8.65;;;;;;;5.24;100.00;100434.09;10152133;28;20105;-69
2021/11/25 17:17:52;;;;;;;19.40;7.60;;;;;;;5.22;100.00;100437.13;10156255;28;20190;-69
2021/11/25 17:22:49;;;;;;;18.70;7.15;;;;;;;5.24;100.00;100429.50;10160597;28;20096;-69
2021/11/25 17:27:47;;;;;;;23.30;8.05;;;;;;;5.23;100.00;100416.22;10153824;28;20054;-69
2021/11/25 17:32:44;;;;;;;22.55;8.50;;;;;;;5.22;100.00;100431.69;10154908;28;20046;-69
2021/11/25 17:37:43;;;;;;;29.80;10.70;;;;;;;5.15;100.00;100435.81;10159756;28;20080;-69
2021/11/25 17:42:41;;;;;;;24.15;11.30;;;;;;;5.20;100.00;100427.66;10150266;28;20070;-70
2021/11/25 17:47:39;;;;;;;23.80;10.57;;;;;;;5.17;100.00;100428.22;10129702;28;20565;-69
2021/11/25 17:52:35;;;;;;;27.98;12.77;;;;;;;5.15;100.00;100431.25;10132151;28;20070;-68
2021/11/25 17:57:32;;;;;;;33.55;12.73;;;;;;;5.12;100.00;100431.00;10125210;28;20054;-69
2021/11/25 18:02:29;;;;;;;28.77;13.20;;;;;;;5.11;100.00;100430.19;10119002;28;20061;-69
2021/11/25 18:07:25;;;;;;;28.95;13.02;;;;;;;5.17;100.00;100430.94;10126651;28;20050;-68
2021/11/25 18:12:24;;;;;;;24.98;12.05;;;;;;;5.10;100.00;100433.97;10144677;28;20173;-68
2021/11/25 18:17:22;;;;;;;32.28;11.70;;;;;;;5.03;100.00;100423.47;10150009;28;20038;-70
2021/11/25 18:22:19;;;;;;;23.85;9.85;;;;;;;4.95;100.00;100416.00;10150581;28;20134;-68
2021/11/25 18:27:16;;;;;;;22.38;8.00;;;;;;;4.96;100.00;100416.81;10149143;28;20069;-68
2021/11/25 18:32:14;;;;;;;18.77;6.22;;;;;;;4.97;100.00;100423.84;10142503;28;20046;-69
2021/11/25 18:37:12;;;;;;;14.88;5.53;;;;;;;4.89;100.00;100433.38;10147241;28;20138;-69
2021/11/25 18:42:11;;;;;;;13.65;4.85;;;;;;;4.85;100.00;100422.34;10123028;28;20058;-67
2021/11/25 18:47:15;;;;;;;19.60;6.82;;;;;;;4.78;100.00;100421.88;10097893;28;20051;-67
2021/11/25 18:52:12;;;;;;;18.70;6.65;;;;;;;4.78;100.00;100427.28;10124446;28;20440;-69
2021/11/25 18:57:09;;;;;;;22.98;7.22;;;;;;;4.67;100.00;100428.47;10125651;28;20057;-71
2021/11/25 19:02:07;;;;;;;14.75;5.82;;;;;;;4.64;100.00;100423.59;10135009;28;20512;-71
2021/11/25 19:07:05;;;;;;;18.20;6.72;;;;;;;4.72;100.00;100433.84;10129950;28;20077;-71
2021/11/25 19:12:05;;;;;;;17.45;6.07;;;;;;;4.70;100.00;100430.59;10125268;28;20038;-70
2021/11/25 19:17:01;;;;;;;24.13;5.80;;;;;;;4.71;100.00;100443.06;10132821;28;20046;-70
2021/11/25 19:21:58;;;;;;;16.63;5.40;;;;;;;4.71;100.00;100440.34;10131246;28;20096;-68
2021/11/25 19:26:55;;;;;;;17.30;5.45;;;;;;;4.70;100.00;100440.63;10137168;28;20066;-70
2021/11/25 19:31:59;;;;;;;22.05;5.85;;;;;;;4.65;100.00;100438.78;10131790;28;20533;-70
2021/11/25 19:36:59;;;;;;;17.27;4.93;;;;;;;4.70;100.00;100440.63;10128947;28;20046;-69
2021/11/25 19:41:57;;;;;;;18.00;4.50;;;;;;;4.69;100.00;100434.41;10144277;28;20039;-69
2021/11/25 19:46:53;;;;;;;14.18;4.82;;;;;;;4.61;100.00;100429.59;10139907;28;20054;-70
2021/11/25 19:51:50;;;;;;;18.77;4.38;;;;;;;4.56;100.00;100418.81;10139204;28;20062;-68
2021/11/25 19:56:47;;;;;;;19.23;5.10;;;;;;;4.51;100.00;100416.16;10130638;28;20169;-71
2021/11/25 20:01:44;;;;;;;14.18;3.97;;;;;;;4.49;100.00;100413.75;10131261;28;20049;-69
2021/11/25 20:06:43;;;;;;;15.60;3.65;;;;;;;4.51;100.00;100421.59;10139780;28;20831;-71
2021/11/25 20:11:41;;;;;;;12.77;3.28;;;;;;;4.49;100.00;100413.75;10149989;28;20055;-69
2021/11/25 20:16:38;;;;;;;10.45;3.63;;;;;;;4.45;100.00;100409.16;10140642;28;20088;-70
2021/11/25 20:21:36;;;;;;;14.38;3.83;;;;;;;4.42;100.00;100408.66;10149603;28;20523;-70
2021/11/25 20:26:34;;;;;;;8.90;3.25;;;;;;;4.44;100.00;100411.09;10140407;28;20501;-70
2021/11/25 20:31:32;;;;;;;11.05;2.35;;;;;;;4.37;100.00;100424.94;10162714;28;20084;-70
2021/11/25 20:36:29;;;;;;;9.18;2.88;;;;;;;4.38;100.00;100417.63;10138996;28;20046;-70
2021/11/25 20:41:26;;;;;;;9.65;2.40;;;;;;;4.38;100.00;100407.59;10145105;28;20042;-70
2021/11/25 20:46:22;;;;;;;15.40;3.17;;;;;;;4.53;100.00;100408.56;10127387;28;20077;-69
2021/11/25 20:51:20;;;;;;;11.15;2.72;;;;;;;4.64;100.00;100410.06;10126248;28;20081;-69
2021/11/25 20:56:16;;;;;;;14.27;3.17;;;;;;;4.64;100.00;100404.66;10141661;28;20046;-69
2021/11/25 21:01:14;;;;;;;8.82;2.20;;;;;;;4.62;100.00;100401.44;10139527;28;20105;-70
2021/11/25 21:06:11;;;;;;;11.07;2.42;;;;;;;4.56;100.00;100408.00;10133439;28;20137;-69
2021/11/25 21:11:09;;;;;;;13.73;2.38;;;;;;;4.51;100.00;100400.72;10113972;28;20239;-71
2021/11/25 21:16:16;;;;;;;8.50;2.55;;;;;;;4.49;100.00;100393.97;10116788;28;20053;-69
2021/11/25 21:21:13;;;;;;;11.65;2.20;;;;;;;4.40;100.00;100383.75;10131965;28;21773;-69
2021/11/25 21:26:10;;;;;;;12.18;3.13;;;;;;;4.42;100.00;100376.16;10128342;28;20046;-70
2021/11/25 21:31:08;;;;;;;14.68;3.65;;;;;;;4.44;100.00;100365.06;10143983;28;20046;-69
2021/11/25 21:36:04;;;;;;;11.30;3.13;;;;;;;4.44;100.00;100367.75;10139957;28;20046;-70
2021/11/25 21:41:02;;;;;;;17.50;3.30;;;;;;;4.46;100.00;100364.78;10139581;28;20042;-70
2021/11/25 21:45:59;;;;;;;12.45;3.50;;;;;;;4.35;100.00;100370.28;10134309;28;20050;-71
2021/11/25 21:51:07;;;;;;;9.23;3.08;;;;;;;4.22;100.00;100360.09;10132247;28;20461;-71
2021/11/25 21:56:05;;;;;;;12.48;3.88;;;;;;;4.24;100.00;100368.75;10151673;28;20092;-71
2021/11/25 22:01:02;;;;;;;11.25;3.08;;;;;;;4.12;100.00;100360.19;10152024;28;20051;-70
2021/11/25 22:05:59;;;;;;;12.50;2.80;;;;;;;4.04;100.00;100358.09;10155942;28;20116;-71
2021/11/25 22:11:00;;;;;;;7.35;2.60;;;;;;;3.96;100.00;100351.38;10170212;28;20045;-71
2021/11/25 22:16:01;;;;;;;17.60;3.17;;;;;;;3.99;100.00;100351.66;10155149;28;20050;-71
2021/11/25 22:21:16;;;;;;;15.40;3.55;;;;;;;3.97;100.00;100355.72;10158678;28;20046;-70
2021/11/25 22:26:13;;;;;;;10.60;2.25;;;;;;;3.99;100.00;100351.66;10154331;28;20365;-70
2021/11/25 22:31:10;;;;;;;9.55;2.10;;;;;;;3.98;100.00;100355.44;10152886;28;20054;-71
2021/11/25 22:36:08;;;;;;;11.52;2.60;;;;;;;4.01;100.00;100337.81;10164137;28;20049;-71
2021/11/25 22:41:04;;;;;;;10.48;2.28;;;;;;;3.99;100.00;100340.81;10150010;28;20460;-71
2021/11/25 22:46:01;;;;;;;8.95;2.20;;;;;;;3.99;100.00;100330.00;10147721;28;20514;-70
2021/11/25 22:50:58;;;;;;;11.68;2.30;;;;;;;3.92;100.00;100339.50;10147965;28;20052;-70
2021/11/25 22:55:55;;;;;;;15.85;2.72;;;;;;;3.89;100.00;100335.47;10149026;28;20564;-70